createdAt,value
2022-11-05T00:01:56.320Z,10.70
2022-11-05T00:05:16.656Z,10.70
2022-11-05T00:08:37.232Z,10.70
2022-11-05T00:11:59.029Z,10.70
2022-11-05T00:15:34.214Z,10.70
2022-11-05T00:18:37.458Z,10.80
2022-11-05T00:21:58.720Z,10.70
2022-11-05T00:25:19.987Z,10.70
2022-11-05T00:28:24.520Z,10.60
2022-11-05T00:31:27.668Z,10.60
2022-11-05T00:34:30.858Z,10.60
2022-11-05T00:37:34.072Z,10.70
2022-11-05T00:40:37.389Z,10.70
2022-11-05T00:43:59.141Z,10.70
2022-11-05T00:47:16.275Z,10.80
2022-11-05T00:50:20.604Z,10.80
2022-11-05T00:53:23.861Z,10.80
2022-11-05T00:56:26.999Z,10.80
2022-11-05T00:59:31.521Z,10.80
2022-11-05T01:02:34.770Z,10.80
2022-11-05T01:05:42.608Z,10.80
2022-11-05T01:08:47.335Z,10.70
2022-11-05T01:11:51.437Z,10.70
2022-11-05T01:14:55.950Z,10.80
2022-11-05T01:17:59.095Z,10.90
2022-11-05T01:21:10.534Z,10.90
2022-11-05T01:24:13.654Z,10.90
2022-11-05T01:27:16.858Z,10.90
2022-11-05T01:30:21.879Z,10.90
2022-11-05T01:33:25.264Z,10.80
2022-11-05T01:36:28.385Z,10.90
2022-11-05T01:39:31.500Z,10.90
2022-11-05T01:42:34.710Z,10.90
2022-11-05T01:45:39.219Z,11.00
2022-11-05T01:48:42.507Z,11.00
2022-11-05T01:51:46.965Z,11.00
2022-11-05T01:54:50.147Z,11.10
2022-11-05T01:57:54.708Z,11.10
2022-11-05T02:00:59.435Z,11.10
2022-11-05T02:04:06.358Z,11.10
2022-11-05T02:07:11.603Z,11.10
2022-11-05T02:10:18.094Z,11.10
2022-11-05T02:13:21.229Z,11.10
2022-11-05T02:16:38.752Z,11.10
2022-11-05T02:20:10.882Z,11.10
2022-11-05T02:23:50.562Z,11.20
2022-11-05T02:27:08.082Z,11.20
2022-11-05T02:30:35.958Z,11.30
2022-11-05T02:33:45.479Z,11.30
2022-11-05T02:36:55.644Z,11.30
2022-11-05T02:40:12.424Z,11.20
2022-11-05T02:43:25.789Z,11.10
2022-11-05T02:46:39.975Z,11.10
2022-11-05T02:49:50.127Z,11.00
2022-11-05T02:53:00.477Z,11.00
2022-11-05T02:56:09.046Z,11.00
2022-11-05T02:59:12.155Z,11.00
2022-11-05T03:02:16.942Z,11.00
2022-11-05T03:05:21.748Z,11.00
2022-11-05T03:08:37.431Z,11.10
2022-11-05T03:11:49.840Z,11.10
2022-11-05T03:15:00.277Z,11.10
2022-11-05T03:18:13.081Z,11.00
2022-11-05T03:21:21.697Z,11.00
2022-11-05T03:24:28.632Z,10.90
2022-11-05T03:27:34.627Z,10.90
2022-11-05T03:30:41.165Z,10.90
2022-11-05T03:33:46.727Z,10.90
2022-11-05T03:36:53.888Z,10.80
2022-11-05T03:40:01.484Z,10.70
2022-11-05T03:43:08.792Z,10.80
2022-11-05T03:46:18.110Z,10.80
2022-11-05T03:49:26.421Z,10.80
2022-11-05T03:52:34.849Z,10.80
2022-11-05T03:55:44.450Z,10.80
2022-11-05T03:58:50.626Z,10.80
2022-11-05T04:01:57.505Z,10.80
2022-11-05T04:05:02.081Z,10.70
2022-11-05T04:08:22.764Z,10.70
2022-11-05T04:11:43.277Z,10.70
2022-11-05T04:14:46.357Z,10.70
2022-11-05T04:17:48.476Z,10.80
2022-11-05T04:21:10.363Z,10.90
2022-11-05T04:24:14.749Z,10.90
2022-11-05T04:27:17.844Z,10.90
2022-11-05T04:30:21.851Z,11.00
2022-11-05T04:33:25.105Z,10.90
2022-11-05T04:36:30.065Z,10.90
2022-11-05T04:39:33.129Z,10.90
2022-11-05T04:42:36.246Z,11.00
2022-11-05T04:45:39.320Z,10.90
2022-11-05T04:48:42.470Z,10.90
2022-11-05T04:51:46.937Z,11.10
2022-11-05T04:54:50.003Z,11.00
2022-11-05T04:57:54.481Z,11.10
2022-11-05T05:00:57.649Z,11.10
2022-11-05T05:04:00.799Z,11.10
2022-11-05T05:07:05.354Z,11.10
2022-11-05T05:10:09.624Z,11.10
2022-11-05T05:13:13.523Z,11.00
2022-11-05T05:16:20.950Z,11.10
2022-11-05T05:19:25.529Z,11.20
2022-11-05T05:22:29.222Z,11.20
2022-11-05T05:25:32.586Z,11.10
2022-11-05T05:28:35.704Z,11.20
2022-11-05T05:31:39.192Z,11.20
2022-11-05T05:34:42.321Z,11.20
2022-11-05T05:37:46.947Z,11.20
2022-11-05T05:40:50.816Z,11.20
2022-11-05T05:43:54.133Z,11.20
2022-11-05T05:46:57.279Z,11.10
2022-11-05T05:50:00.392Z,11.20
2022-11-05T05:53:04.857Z,11.10
2022-11-05T05:56:08.531Z,11.10
2022-11-05T05:59:11.687Z,11.10
2022-11-05T06:02:14.835Z,11.10
2022-11-05T06:05:18.077Z,11.10
2022-11-05T06:08:22.578Z,11.10
2022-11-05T06:11:26.450Z,11.10
2022-11-05T06:14:29.556Z,11.10
2022-11-05T06:17:34.387Z,11.20
2022-11-05T06:20:37.493Z,11.20
2022-11-05T06:23:43.645Z,11.10
2022-11-05T06:26:46.776Z,11.20
2022-11-05T06:29:49.917Z,11.30
2022-11-05T06:32:53.071Z,11.30
2022-11-05T06:35:59.078Z,11.40
2022-11-05T06:39:03.558Z,11.40
2022-11-05T06:42:22.086Z,11.50
2022-11-05T06:45:25.256Z,11.60
2022-11-05T06:48:28.915Z,11.60
2022-11-05T06:51:32.019Z,11.70
2022-11-05T06:54:36.522Z,11.80
2022-11-05T06:57:39.854Z,11.90
2022-11-05T07:00:43.219Z,12.00
2022-11-05T07:03:49.005Z,12.10
2022-11-05T07:06:52.135Z,12.20
2022-11-05T07:09:56.653Z,12.30
2022-11-05T07:13:07.840Z,12.40
2022-11-05T07:16:11.878Z,12.50
2022-11-05T07:19:15.006Z,12.60
2022-11-05T07:22:18.150Z,12.80
2022-11-05T07:25:22.706Z,12.80
2022-11-05T07:28:25.866Z,13.00
2022-11-05T07:31:29.008Z,13.10
2022-11-05T07:34:32.482Z,13.20
2022-11-05T07:37:42.916Z,13.40
2022-11-05T07:40:47.382Z,13.50
2022-11-05T07:43:50.508Z,13.70
2022-11-05T07:46:53.711Z,13.80
2022-11-05T07:49:56.835Z,13.90
2022-11-05T07:53:04.327Z,14.10
2022-11-05T07:56:09.174Z,14.10
2022-11-05T07:59:12.263Z,14.20
2022-11-05T08:02:15.564Z,14.20
2022-11-05T08:05:18.855Z,14.20
2022-11-05T08:08:22.100Z,14.30
2022-11-05T08:11:26.640Z,14.20
2022-11-05T08:14:29.818Z,14.00
2022-11-05T08:17:32.986Z,14.00
2022-11-05T08:20:37.040Z,14.00
2022-11-05T08:23:40.205Z,13.90
2022-11-05T08:26:44.660Z,13.90
2022-11-05T08:29:47.799Z,13.80
2022-11-05T08:32:50.971Z,13.90
2022-11-05T08:35:54.435Z,13.80
2022-11-05T08:38:57.568Z,13.90
2022-11-05T08:42:02.051Z,13.90
2022-11-05T08:45:05.850Z,13.90
2022-11-05T08:48:11.302Z,13.90
2022-11-05T08:51:14.465Z,13.90
2022-11-05T08:54:17.777Z,13.80
2022-11-05T08:57:22.273Z,13.90
2022-11-05T09:00:25.620Z,13.90
2022-11-05T09:03:28.731Z,13.90
2022-11-05T09:06:31.901Z,13.90
2022-11-05T09:09:35.058Z,14.00
2022-11-05T09:12:39.732Z,14.10
2022-11-05T09:15:43.071Z,14.10
2022-11-05T09:18:46.230Z,14.20
2022-11-05T09:21:49.368Z,14.20
2022-11-05T09:24:52.555Z,14.30
2022-11-05T09:28:13.384Z,14.30
2022-11-05T09:31:19.271Z,14.30
2022-11-05T09:34:22.413Z,14.10
2022-11-05T09:37:25.506Z,14.30
2022-11-05T09:40:31.013Z,14.40
2022-11-05T09:43:41.570Z,14.40
2022-11-05T09:46:49.152Z,14.50
2022-11-05T09:49:55.454Z,14.30
2022-11-05T09:52:58.999Z,14.20
2022-11-05T09:56:02.371Z,14.20
2022-11-05T09:59:15.591Z,14.30
2022-11-05T10:02:22.922Z,14.20
2022-11-05T10:05:28.195Z,14.20
2022-11-05T10:08:35.896Z,14.20
2022-11-05T10:11:43.888Z,14.30
2022-11-05T10:14:52.798Z,14.40
2022-11-05T10:18:00.008Z,14.50
2022-11-05T10:21:03.656Z,14.50
2022-11-05T10:24:13.943Z,14.50
2022-11-05T10:27:21.457Z,14.60
2022-11-05T10:30:26.387Z,14.50
2022-11-05T10:33:33.973Z,14.50
2022-11-05T10:36:39.282Z,14.50
2022-11-05T10:39:42.465Z,14.60
2022-11-05T10:42:55.665Z,14.70
2022-11-05T10:46:11.280Z,14.70
2022-11-05T10:49:42.049Z,14.70
2022-11-05T10:52:54.957Z,14.80
2022-11-05T10:55:58.592Z,14.80
2022-11-05T10:59:06.680Z,14.90
2022-11-05T11:02:24.761Z,15.00
2022-11-05T11:05:31.614Z,14.90
2022-11-05T11:08:37.188Z,15.00
2022-11-05T11:11:43.302Z,15.00
2022-11-05T11:15:01.821Z,15.10
2022-11-05T11:21:33.988Z,15.10
2022-11-05T11:24:40.297Z,15.10
2022-11-05T11:27:43.604Z,15.20
2022-11-05T11:30:51.335Z,15.20
2022-11-05T11:34:01.081Z,15.30
2022-11-05T11:37:08.762Z,15.30
2022-11-05T11:40:17.817Z,15.40
2022-11-05T11:43:28.128Z,15.30
2022-11-05T11:46:34.111Z,15.30
2022-11-05T11:49:45.735Z,15.40
2022-11-05T11:52:50.245Z,15.40
2022-11-05T11:56:06.050Z,15.40
2022-11-05T11:59:18.216Z,15.50
2022-11-05T12:02:47.547Z,15.70
2022-11-05T12:05:59.665Z,15.80
2022-11-05T12:09:13.162Z,16.00
2022-11-05T12:12:19.145Z,16.30
2022-11-05T12:15:35.674Z,16.60
2022-11-05T12:18:45.534Z,17.30
2022-11-05T12:22:00.630Z,18.20
2022-11-05T12:25:23.744Z,19.00
2022-11-05T12:29:17.793Z,19.90
2022-11-05T12:32:36.368Z,20.10
2022-11-05T12:35:57.749Z,20.00
2022-11-05T12:39:39.367Z,19.60
2022-11-05T12:42:58.010Z,19.10
2022-11-05T12:46:07.206Z,18.60
2022-11-05T12:49:46.763Z,18.10
2022-11-05T12:53:24.786Z,17.40
2022-11-05T12:56:34.557Z,17.10
2022-11-05T12:59:44.625Z,16.90
2022-11-05T13:02:54.137Z,16.70
2022-11-05T13:06:06.471Z,16.50
2022-11-05T13:09:14.856Z,16.40
2022-11-05T13:12:23.439Z,16.20
2022-11-05T13:15:33.482Z,15.90
2022-11-05T13:18:41.677Z,15.80
2022-11-05T13:21:48.709Z,15.50
2022-11-05T13:24:54.726Z,15.40
2022-11-05T13:28:15.546Z,15.20
2022-11-05T13:31:25.726Z,15.20
2022-11-05T13:34:33.458Z,15.20
2022-11-05T13:38:02.395Z,15.30
2022-11-05T13:41:25.804Z,15.20
2022-11-05T13:44:48.690Z,15.30
2022-11-05T13:48:12.276Z,15.40
2022-11-05T13:51:50.464Z,15.50
2022-11-05T13:55:24.623Z,15.80
2022-11-05T13:58:53.534Z,16.00
2022-11-05T14:02:00.268Z,16.00
2022-11-05T14:05:09.211Z,15.90
2022-11-05T14:08:18.595Z,15.80
2022-11-05T14:11:25.158Z,15.70
2022-11-05T14:14:31.612Z,15.70
2022-11-05T14:17:55.232Z,15.60
2022-11-05T14:21:01.956Z,15.40
2022-11-05T14:24:26.696Z,15.20
2022-11-05T14:27:54.719Z,15.10
2022-11-05T14:30:58.283Z,15.00
2022-11-05T14:34:17.624Z,15.00
2022-11-05T14:37:37.901Z,14.90
2022-11-05T14:40:44.247Z,14.80
2022-11-05T14:43:55.142Z,14.80
2022-11-05T14:47:01.981Z,14.80
2022-11-05T14:50:11.656Z,14.70
2022-11-05T14:53:31.773Z,14.70
2022-11-05T14:56:45.438Z,14.60
2022-11-05T14:59:54.589Z,14.60
2022-11-05T15:03:01.884Z,14.50
2022-11-05T15:06:21.142Z,14.50
2022-11-05T15:09:35.362Z,14.40
2022-11-05T15:12:43.934Z,14.30
2022-11-05T15:15:50.940Z,14.10
2022-11-05T15:18:57.113Z,14.00
2022-11-05T15:22:05.978Z,14.00
2022-11-05T15:25:20.032Z,13.90
2022-11-05T15:28:32.145Z,13.80
2022-11-05T15:31:41.293Z,13.60
2022-11-05T15:34:52.648Z,13.50
2022-11-05T15:38:02.065Z,13.40
2022-11-05T15:41:16.896Z,13.40
2022-11-05T15:44:28.955Z,13.30
2022-11-05T15:47:34.554Z,13.20
2022-11-05T15:50:38.749Z,13.20
2022-11-05T15:57:27.457Z,13.10
2022-11-05T16:00:33.415Z,12.90
2022-11-05T16:03:40.880Z,12.90
2022-11-05T16:06:48.409Z,12.90
2022-11-05T16:09:54.673Z,12.90
2022-11-05T16:13:21.056Z,12.90
2022-11-05T16:16:34.682Z,12.80
2022-11-05T16:19:42.402Z,12.80
2022-11-05T16:22:47.341Z,12.70
2022-11-05T16:25:51.648Z,12.60
2022-11-05T16:28:57.198Z,12.60
2022-11-05T16:32:03.569Z,12.60
2022-11-05T16:35:09.166Z,12.50
2022-11-05T16:38:15.284Z,12.50
2022-11-05T16:41:21.293Z,12.40
2022-11-05T16:44:26.557Z,12.40
2022-11-05T16:47:31.727Z,12.40
2022-11-05T16:50:36.403Z,12.40
2022-11-05T16:53:40.086Z,12.40
2022-11-05T16:56:44.082Z,12.30
2022-11-05T16:59:52.825Z,12.30
2022-11-05T17:02:57.398Z,12.30
2022-11-05T17:06:01.410Z,12.30
2022-11-05T17:09:05.810Z,12.20
2022-11-05T17:12:12.391Z,12.20
2022-11-05T17:15:26.147Z,12.20
2022-11-05T17:18:30.588Z,12.20
2022-11-05T17:21:34.966Z,12.20
2022-11-05T17:24:39.996Z,12.20
2022-11-05T17:27:44.335Z,12.20
2022-11-05T17:30:53.184Z,12.10
2022-11-05T17:33:58.253Z,12.10
2022-11-05T17:37:02.471Z,12.00
2022-11-05T17:40:11.924Z,12.00
2022-11-05T17:43:17.718Z,11.90
2022-11-05T17:46:23.698Z,11.90
2022-11-05T17:49:27.997Z,11.90
2022-11-05T17:52:32.684Z,11.80
2022-11-05T17:55:36.961Z,11.70
2022-11-05T17:58:41.254Z,11.70
2022-11-05T18:01:46.899Z,11.70
2022-11-05T18:04:52.026Z,11.70
2022-11-05T18:07:57.030Z,11.70
2022-11-05T18:11:00.967Z,11.60
2022-11-05T18:14:05.555Z,11.60
2022-11-05T18:17:14.487Z,11.60
2022-11-05T18:20:19.708Z,11.50
2022-11-05T18:23:25.012Z,11.50
2022-11-05T18:26:29.641Z,11.50
2022-11-05T18:29:38.155Z,11.50
2022-11-05T18:32:44.818Z,11.50
2022-11-05T18:35:49.695Z,11.50
2022-11-05T18:38:54.380Z,11.40
2022-11-05T18:41:58.333Z,11.40
2022-11-05T18:45:02.715Z,11.40
2022-11-05T18:48:11.418Z,11.40
2022-11-05T18:51:17.482Z,11.30
2022-11-05T18:54:21.948Z,11.40
2022-11-05T18:57:27.920Z,11.30
2022-11-05T19:00:32.177Z,11.30
2022-11-05T19:03:38.330Z,11.20
2022-11-05T19:06:44.309Z,11.10
2022-11-05T19:09:48.020Z,11.10
2022-11-05T19:12:51.912Z,11.00
2022-11-05T19:15:55.988Z,10.90
2022-11-05T19:19:02.977Z,10.90
2022-11-05T19:22:07.620Z,10.80
2022-11-05T19:25:13.140Z,10.70
2022-11-05T19:28:17.839Z,10.60
2022-11-05T19:31:24.143Z,10.50
2022-11-05T19:34:32.804Z,10.50
2022-11-05T19:37:37.568Z,10.50
2022-11-05T19:40:41.901Z,10.40
2022-11-05T19:43:47.604Z,10.30
2022-11-05T19:46:52.157Z,10.20
2022-11-05T19:50:01.027Z,10.20
2022-11-05T19:53:06.530Z,10.10
2022-11-05T19:56:13.041Z,10.10
2022-11-05T19:59:19.904Z,10.00
2022-11-05T20:02:24.062Z,10.00
2022-11-05T20:05:30.755Z,9.90
2022-11-05T20:08:43.494Z,9.80
2022-11-05T20:11:58.845Z,9.70
2022-11-05T20:15:04.396Z,9.70
2022-11-05T20:18:11.812Z,9.60
2022-11-05T20:21:18.777Z,9.60
2022-11-05T20:24:25.511Z,9.60
2022-11-05T20:27:30.414Z,9.60
2022-11-05T20:30:35.194Z,9.60
2022-11-05T20:33:41.490Z,9.50
2022-11-05T20:36:47.430Z,9.50
2022-11-05T20:39:51.511Z,9.50
2022-11-05T20:42:57.164Z,9.50
2022-11-05T20:46:01.189Z,9.40
2022-11-05T20:49:05.557Z,9.40
2022-11-05T20:52:12.571Z,9.30
2022-11-05T20:55:17.144Z,9.20
2022-11-05T20:58:23.181Z,9.20
2022-11-05T21:01:28.010Z,9.10
2022-11-05T21:04:33.532Z,9.10
2022-11-05T21:07:39.161Z,9.00
2022-11-05T21:10:47.177Z,9.00
2022-11-05T21:13:55.079Z,9.10
2022-11-05T21:17:00.721Z,8.90
2022-11-05T21:20:04.980Z,8.90
2022-11-05T21:23:10.523Z,8.90
2022-11-05T21:26:18.198Z,8.90
2022-11-05T21:29:22.077Z,8.90
2022-11-05T21:32:26.334Z,8.90
2022-11-05T21:35:30.177Z,8.90
2022-11-05T21:38:36.101Z,8.90
2022-11-05T21:41:40.013Z,8.90
2022-11-05T21:44:43.568Z,8.90
2022-11-05T21:47:47.410Z,8.90
2022-11-05T21:51:15.676Z,8.90
2022-11-05T21:54:38.503Z,8.90
2022-11-05T21:58:00.085Z,8.80
2022-11-05T22:01:04.271Z,8.80
2022-11-05T22:04:08.796Z,8.80
2022-11-05T22:07:13.672Z,8.80
2022-11-05T22:10:18.390Z,8.80
2022-11-05T22:13:21.631Z,8.60
2022-11-05T22:16:25.271Z,8.70
2022-11-05T22:19:28.839Z,8.70
2022-11-05T22:22:32.160Z,8.60
2022-11-05T22:25:37.735Z,8.60
2022-11-05T22:28:40.949Z,8.60
2022-11-05T22:31:44.211Z,8.50
2022-11-05T22:34:49.130Z,8.50
2022-11-05T22:37:52.362Z,8.50
2022-11-05T22:40:56.911Z,8.50
2022-11-05T22:44:00.186Z,8.50
2022-11-05T22:47:03.350Z,8.50
2022-11-05T22:50:07.352Z,8.40
2022-11-05T22:53:10.494Z,8.40
2022-11-05T22:56:17.211Z,8.40
2022-11-05T22:59:20.569Z,8.30
2022-11-05T23:02:23.822Z,8.30
2022-11-05T23:05:27.128Z,8.30
2022-11-05T23:08:48.794Z,8.30
2022-11-05T23:11:57.368Z,8.20
2022-11-05T23:15:02.431Z,8.20
2022-11-05T23:18:23.104Z,8.20
2022-11-05T23:21:43.604Z,8.20
2022-11-05T23:24:48.006Z,8.20
2022-11-05T23:27:55.217Z,8.20
2022-11-05T23:31:15.749Z,8.30
2022-11-05T23:34:18.839Z,8.30
2022-11-05T23:37:40.525Z,8.20
2022-11-05T23:40:57.492Z,8.20
2022-11-05T23:44:19.574Z,8.20
2022-11-05T23:47:40.208Z,8.30
2022-11-05T23:50:43.905Z,8.20
2022-11-05T23:53:47.003Z,8.10
2022-11-05T23:56:50.122Z,8.10
2022-11-05T23:59:54.618Z,8.10
